Time;durP1;ratioP1;P1;durP2;ratioP2;P2;SDS_P1;SDS_P2;PMS_P1;PMS_P2;Temp;Humidity;BMP_temperature;BMP_pressure;BME280_temperature;BME280_humidity;BME280_pressure;Samples;Min_cycle;Max_cycle;Signal;HPM_P1;HPM_P2
2022/01/23 00:00:44;;;;;;;;;4.00;4.00;;;;;;;;5074305;28;46274;-70
2022/01/23 00:03:17;;;;;;;;;3.75;3.75;;;;;;;;5078638;27;45348;-69
2022/01/23 00:05:44;;;;;;;;;4.00;4.00;;;;;;;;5074898;27;45664;-69
2022/01/23 00:08:12;;;;;;;;;4.00;4.00;;;;;;;;5077146;27;45397;-69
2022/01/23 00:10:37;;;;;;;;;6.00;6.00;;;;;;;;5075118;28;47207;-69
2022/01/23 00:13:22;;;;;;;;;4.75;4.75;;;;;;;;5075425;27;45383;-69
2022/01/23 00:18:31;;;;;;;;;6.75;4.00;;;;;;;;5072034;28;45395;-69
2022/01/23 00:20:57;;;;;;;;;5.00;4.00;;;;;;;;5074995;28;46319;-69
2022/01/23 00:23:33;;;;;;;;;5.25;4.00;;;;;;;;5073890;28;45174;-69
2022/01/23 00:31:27;;;;;;;;;4.50;4.50;;;;;;;;5071676;28;45831;-69
2022/01/23 00:33:54;;;;;;;;;3.50;3.50;;;;;;;;5057460;28;45293;-69
2022/01/23 00:36:20;;;;;;;;;3.25;3.25;;;;;;;;5075896;28;45367;-69
2022/01/23 00:38:45;;;;;;;;;5.00;5.00;;;;;;;;5074302;28;45321;-69
2022/01/23 00:41:10;;;;;;;;;5.00;4.50;;;;;;;;5073830;27;45438;-69
2022/01/23 00:43:40;;;;;;;;;3.25;3.25;;;;;;;;5071274;28;45684;-69
2022/01/23 00:49:01;;;;;;;;;5.00;4.00;;;;;;;;5076610;27;45386;-69
2022/01/23 00:51:28;;;;;;;;;4.00;3.75;;;;;;;;5074814;27;45385;-70
2022/01/23 00:53:54;;;;;;;;;4.50;4.00;;;;;;;;5072632;28;45300;-69
2022/01/23 00:56:19;;;;;;;;;3.75;3.75;;;;;;;;5073630;28;45542;-70
2022/01/23 00:58:44;;;;;;;;;4.00;4.00;;;;;;;;5071221;28;45322;-69
2022/01/23 01:01:10;;;;;;;;;4.00;4.00;;;;;;;;5081509;27;48222;-69
2022/01/23 01:03:35;;;;;;;;;5.00;5.00;;;;;;;;5074269;28;45615;-69
2022/01/23 01:06:00;;;;;;;;;4.00;4.00;;;;;;;;5079488;27;45429;-69
2022/01/23 01:08:25;;;;;;;;;3.75;3.00;;;;;;;;5076822;28;45482;-69
2022/01/23 01:14:25;;;;;;;;;5.25;4.25;;;;;;;;5076763;27;45534;-69
2022/01/23 01:37:47;;;;;;;;;5.00;4.00;;;;;;;;5076906;28;45350;-70
2022/01/23 01:40:13;;;;;;;;;4.75;4.00;;;;;;;;5079943;27;45427;-69
2022/01/23 01:42:39;;;;;;;;;3.50;3.50;;;;;;;;5076513;27;45994;-70
2022/01/23 01:45:04;;;;;;;;;4.00;4.00;;;;;;;;5078190;27;46715;-69
2022/01/23 01:47:29;;;;;;;;;3.00;3.00;;;;;;;;5075679;27;45315;-70
2022/01/23 01:49:54;;;;;;;;;3.75;3.75;;;;;;;;5076581;28;45240;-69
2022/01/23 01:52:20;;;;;;;;;2.25;2.25;;;;;;;;5075604;28;46261;-69
2022/01/23 01:54:47;;;;;;;;;3.25;3.00;;;;;;;;5076042;28;45253;-69
2022/01/23 01:57:13;;;;;;;;;5.00;5.00;;;;;;;;5080037;27;45555;-69
2022/01/23 02:10:03;;;;;;;;;3.25;3.00;;;;;;;;5074862;27;45312;-72
2022/01/23 02:23:20;;;;;;;;;3.00;3.00;;;;;;;;5075099;27;45857;-73
2022/01/23 02:53:28;;;;;;;;;4.00;3.50;;;;;;;;5074690;28;45449;-73
2022/01/23 02:55:43;;;;;;;;;2.00;2.00;;;;;;;;5074319;27;45933;-73
2022/01/23 02:58:11;;;;;;;;;3.00;2.50;;;;;;;;5074408;28;45574;-73
2022/01/23 03:00:48;;;;;;;;;3.00;3.00;;;;;;;;5076862;28;45434;-73
2022/01/23 03:03:20;;;;;;;;;3.50;3.50;;;;;;;;5076085;28;45295;-73
2022/01/23 03:05:47;;;;;;;;;3.25;3.25;;;;;;;;5074966;27;46362;-73
2022/01/23 03:08:30;;;;;;;;;4.00;3.00;;;;;;;;5074841;28;46892;-72
2022/01/23 03:11:03;;;;;;;;;4.00;2.50;;;;;;;;5072703;28;45484;-73
2022/01/23 03:25:01;;;;;;;;;3.50;3.00;;;;;;;;5008388;28;45308;-73
2022/01/23 03:32:46;;;;;;;;;3.00;2.00;;;;;;;;4992774;28;45439;-73
2022/01/23 03:35:12;;;;;;;;;2.25;2.00;;;;;;;;4993772;28;45480;-73
2022/01/23 03:37:37;;;;;;;;;3.00;3.00;;;;;;;;4993378;28;45491;-73
2022/01/23 03:40:04;;;;;;;;;3.00;3.00;;;;;;;;4993855;28;45465;-73
2022/01/23 03:42:31;;;;;;;;;3.50;2.50;;;;;;;;4993643;28;45643;-73
2022/01/23 03:47:53;;;;;;;;;4.00;3.00;;;;;;;;4987781;28;45565;-73
2022/01/23 03:50:18;;;;;;;;;2.50;2.50;;;;;;;;4978981;28;45638;-73
2022/01/23 03:52:43;;;;;;;;;2.25;2.25;;;;;;;;5024157;28;45737;-73
2022/01/23 03:55:09;;;;;;;;;5.25;2.50;;;;;;;;5033132;28;45373;-73
2022/01/23 03:57:34;;;;;;;;;3.00;3.00;;;;;;;;5032952;28;47238;-73
2022/01/23 03:59:59;;;;;;;;;1.00;1.00;;;;;;;;5037275;28;45502;-73
2022/01/23 04:02:25;;;;;;;;;3.75;2.75;;;;;;;;5036228;28;45473;-73
2022/01/23 04:04:50;;;;;;;;;3.00;3.00;;;;;;;;5033128;28;45470;-73
2022/01/23 04:07:19;;;;;;;;;3.25;3.25;;;;;;;;5032882;28;46042;-73
2022/01/23 04:09:45;;;;;;;;;2.25;2.25;;;;;;;;5033358;28;45566;-73
2022/01/23 04:12:21;;;;;;;;;3.75;3.00;;;;;;;;5033233;28;45455;-73
2022/01/23 04:14:52;;;;;;;;;2.75;2.75;;;;;;;;5032906;28;46330;-72
2022/01/23 04:18:11;;;;;;;;;3.00;3.00;;;;;;;;5033498;28;46342;-73
2022/01/23 04:59:53;;;;;;;;;3.00;3.00;;;;;;;;5015660;28;45769;-73
2022/01/23 05:05:09;;;;;;;;;2.75;2.75;;;;;;;;4978141;28;45487;-73
2022/01/23 05:07:35;;;;;;;;;2.50;2.00;;;;;;;;4979351;28;45259;-73
2022/01/23 05:10:00;;;;;;;;;3.25;3.25;;;;;;;;4986042;28;45393;-73
2022/01/23 05:12:29;;;;;;;;;3.00;2.00;;;;;;;;4986453;28;45416;-73
2022/01/23 05:14:55;;;;;;;;;2.00;2.00;;;;;;;;4988801;28;45543;-73
2022/01/23 05:17:20;;;;;;;;;2.75;2.75;;;;;;;;4986309;28;46178;-73
2022/01/23 05:19:46;;;;;;;;;3.00;3.00;;;;;;;;4986467;28;45546;-73
2022/01/23 05:24:44;;;;;;;;;2.75;2.25;;;;;;;;4987975;28;45523;-73
2022/01/23 05:27:10;;;;;;;;;2.00;2.00;;;;;;;;4980250;28;45491;-73
2022/01/23 05:29:36;;;;;;;;;3.00;3.00;;;;;;;;5018017;28;46316;-73
2022/01/23 05:32:02;;;;;;;;;2.00;2.00;;;;;;;;5027714;28;45471;-73
2022/01/23 05:34:27;;;;;;;;;2.25;2.25;;;;;;;;5027951;28;45497;-73
2022/01/23 05:36:53;;;;;;;;;2.00;2.00;;;;;;;;5032422;28;45502;-73
2022/01/23 05:39:23;;;;;;;;;2.25;2.25;;;;;;;;5027907;28;45728;-73
2022/01/23 05:41:53;;;;;;;;;1.25;1.25;;;;;;;;5050683;28;45446;-73
2022/01/23 05:44:18;;;;;;;;;2.50;2.50;;;;;;;;5075075;27;45461;-73
2022/01/23 05:46:44;;;;;;;;;2.50;2.50;;;;;;;;5074673;27;45391;-73
2022/01/23 05:49:09;;;;;;;;;1.75;1.00;;;;;;;;5077335;27;45531;-73
2022/01/23 05:51:34;;;;;;;;;2.25;2.00;;;;;;;;5077661;27;45625;-73
2022/01/23 05:53:59;;;;;;;;;3.00;2.00;;;;;;;;5077233;28;45409;-72
2022/01/23 05:56:24;;;;;;;;;3.00;3.00;;;;;;;;5059625;28;45356;-73
2022/01/23 05:58:50;;;;;;;;;5.25;2.50;;;;;;;;5058328;28;48364;-73
2022/01/23 06:01:15;;;;;;;;;2.00;2.00;;;;;;;;5074986;28;45479;-73
2022/01/23 06:03:40;;;;;;;;;2.25;2.25;;;;;;;;5076389;27;45275;-73
2022/01/23 06:06:05;;;;;;;;;3.00;3.00;;;;;;;;5078225;27;45820;-73
2022/01/23 06:08:31;;;;;;;;;3.75;3.75;;;;;;;;5075765;27;45345;-73
2022/01/23 06:10:57;;;;;;;;;3.00;2.00;;;;;;;;5078076;27;45566;-72
2022/01/23 06:13:23;;;;;;;;;2.00;2.00;;;;;;;;5075423;28;45551;-73
2022/01/23 06:15:48;;;;;;;;;3.00;3.00;;;;;;;;5076560;27;45664;-73
2022/01/23 06:18:13;;;;;;;;;3.00;3.00;;;;;;;;5060437;27;46569;-73
2022/01/23 06:20:38;;;;;;;;;2.75;2.50;;;;;;;;5077518;27;45546;-72
2022/01/23 06:23:04;;;;;;;;;3.00;2.00;;;;;;;;5074802;27;45521;-73
2022/01/23 06:25:33;;;;;;;;;2.25;2.25;;;;;;;;5074670;28;45403;-73
2022/01/23 06:27:59;;;;;;;;;1.50;1.50;;;;;;;;5073894;28;46427;-73
2022/01/23 06:30:24;;;;;;;;;2.75;2.75;;;;;;;;5080237;27;45274;-73
2022/01/23 06:32:50;;;;;;;;;2.00;2.00;;;;;;;;5075854;27;45345;-73
2022/01/23 06:35:15;;;;;;;;;4.00;2.50;;;;;;;;5075604;28;45357;-71
2022/01/23 06:37:40;;;;;;;;;4.00;3.25;;;;;;;;5074172;28;46037;-73
2022/01/23 06:40:06;;;;;;;;;4.50;3.25;;;;;;;;5075645;28;45292;-73
2022/01/23 06:42:31;;;;;;;;;2.25;2.25;;;;;;;;5077178;28;45372;-73
2022/01/23 06:44:58;;;;;;;;;3.00;3.00;;;;;;;;5075301;27;45399;-73
2022/01/23 06:47:23;;;;;;;;;1.75;1.75;;;;;;;;5074640;28;45276;-73
2022/01/23 06:49:48;;;;;;;;;3.00;3.00;;;;;;;;5076060;27;45418;-73
2022/01/23 06:52:13;;;;;;;;;1.00;1.00;;;;;;;;5075517;28;46436;-73
2022/01/23 06:54:38;;;;;;;;;3.75;3.75;;;;;;;;5090037;27;45391;-73
2022/01/23 06:57:04;;;;;;;;;3.25;2.75;;;;;;;;5074720;28;45956;-73
2022/01/23 06:59:29;;;;;;;;;2.50;2.00;;;;;;;;5075991;27;45405;-73
2022/01/23 07:01:54;;;;;;;;;0.00;0.00;;;;;;;;5073943;27;45419;-73
2022/01/23 07:04:19;;;;;;;;;2.50;2.00;;;;;;;;5075085;28;45498;-73
2022/01/23 07:06:45;;;;;;;;;2.00;2.00;;;;;;;;5057725;28;47700;-73
2022/01/23 07:09:10;;;;;;;;;2.75;2.00;;;;;;;;5077414;28;45489;-73
2022/01/23 07:11:35;;;;;;;;;2.50;2.00;;;;;;;;5074650;27;45413;-73
2022/01/23 07:14:00;;;;;;;;;2.00;2.00;;;;;;;;5072817;27;45308;-73
2022/01/23 07:16:25;;;;;;;;;2.25;2.25;;;;;;;;5074781;28;46429;-73
2022/01/23 07:18:51;;;;;;;;;3.00;3.00;;;;;;;;5073206;27;45477;-72
2022/01/23 07:21:16;;;;;;;;;3.00;3.00;;;;;;;;5076524;28;45518;-73
2022/01/23 07:23:49;;;;;;;;;2.00;2.00;;;;;;;;5081994;27;45487;-73
2022/01/23 07:26:14;;;;;;;;;2.00;2.00;;;;;;;;5079681;27;47338;-73
2022/01/23 07:28:42;;;;;;;;;2.00;2.00;;;;;;;;5074799;28;45323;-73
2022/01/23 07:31:10;;;;;;;;;1.25;1.25;;;;;;;;5072194;28;45419;-72
2022/01/23 07:33:36;;;;;;;;;2.75;2.75;;;;;;;;5074800;27;45463;-73
2022/01/23 07:36:02;;;;;;;;;3.00;3.00;;;;;;;;5073582;27;46266;-73
2022/01/23 07:38:27;;;;;;;;;4.00;4.00;;;;;;;;5073293;28;45438;-73
2022/01/23 07:40:52;;;;;;;;;4.00;3.00;;;;;;;;5073430;28;45491;-73
2022/01/23 07:43:17;;;;;;;;;2.25;2.25;;;;;;;;5072740;28;45415;-73
2022/01/23 07:45:43;;;;;;;;;1.00;1.00;;;;;;;;5076037;28;45327;-73
2022/01/23 07:48:09;;;;;;;;;5.75;5.75;;;;;;;;5076272;27;45457;-73
2022/01/23 07:50:34;;;;;;;;;3.50;2.00;;;;;;;;5078635;27;45489;-72
2022/01/23 07:52:59;;;;;;;;;2.00;2.00;;;;;;;;5077752;27;45511;-72
2022/01/23 07:55:24;;;;;;;;;2.00;2.00;;;;;;;;5075923;28;45532;-73
2022/01/23 07:57:52;;;;;;;;;3.25;3.25;;;;;;;;5075527;27;45477;-72
2022/01/23 08:00:18;;;;;;;;;2.00;2.00;;;;;;;;5076637;27;45372;-72
2022/01/23 08:02:43;;;;;;;;;4.00;4.00;;;;;;;;5082361;27;45477;-73
2022/01/23 08:05:10;;;;;;;;;2.50;2.50;;;;;;;;5080068;27;45325;-73
2022/01/23 08:07:36;;;;;;;;;2.25;2.00;;;;;;;;5077652;27;45478;-73
2022/01/23 08:10:03;;;;;;;;;2.75;2.75;;;;;;;;5074391;27;45303;-72
2022/01/23 08:12:29;;;;;;;;;3.00;3.00;;;;;;;;5075817;28;45706;-73
2022/01/23 08:14:55;;;;;;;;;3.00;3.00;;;;;;;;5073211;28;45339;-73
2022/01/23 08:17:24;;;;;;;;;4.25;4.25;;;;;;;;5074933;27;45406;-72
2022/01/23 08:19:49;;;;;;;;;5.00;3.25;;;;;;;;5073927;27;45239;-73
2022/01/23 08:22:15;;;;;;;;;3.00;3.00;;;;;;;;5074377;28;45305;-73
2022/01/23 08:24:40;;;;;;;;;4.00;3.00;;;;;;;;5075446;28;45563;-72
2022/01/23 08:27:05;;;;;;;;;2.00;2.00;;;;;;;;5073769;28;45412;-73
2022/01/23 08:29:30;;;;;;;;;2.50;2.50;;;;;;;;5073051;28;45278;-73
2022/01/23 08:31:55;;;;;;;;;3.25;3.00;;;;;;;;5073622;28;45399;-73
2022/01/23 08:34:20;;;;;;;;;3.00;3.00;;;;;;;;5072507;28;46513;-73
2022/01/23 08:36:46;;;;;;;;;5.00;3.25;;;;;;;;5075257;27;45566;-72
2022/01/23 08:39:12;;;;;;;;;2.00;2.00;;;;;;;;5076219;28;45697;-73
2022/01/23 08:41:49;;;;;;;;;2.50;2.50;;;;;;;;5077234;27;45493;-73
2022/01/23 08:44:15;;;;;;;;;3.25;3.25;;;;;;;;5078552;27;46151;-73
2022/01/23 08:46:40;;;;;;;;;3.00;3.00;;;;;;;;5075635;27;45494;-73
2022/01/23 08:49:06;;;;;;;;;3.00;3.00;;;;;;;;5076181;27;45461;-72
2022/01/23 08:51:31;;;;;;;;;3.75;3.75;;;;;;;;5075276;28;45272;-72
2022/01/23 08:53:58;;;;;;;;;2.50;2.50;;;;;;;;5072751;28;47195;-73
2022/01/23 08:56:24;;;;;;;;;4.25;3.25;;;;;;;;5073147;28;45380;-72
2022/01/23 08:58:49;;;;;;;;;5.00;5.00;;;;;;;;5073607;28;45321;-73
2022/01/23 09:01:14;;;;;;;;;6.00;2.75;;;;;;;;5083380;27;45527;-73
2022/01/23 09:03:40;;;;;;;;;3.00;3.00;;;;;;;;5073810;28;46118;-73
2022/01/23 09:06:07;;;;;;;;;2.00;2.00;;;;;;;;5086684;27;45352;-72
2022/01/23 09:08:37;;;;;;;;;3.00;3.00;;;;;;;;5076292;27;45849;-73
2022/01/23 09:11:08;;;;;;;;;3.00;3.00;;;;;;;;5073175;28;45368;-73
2022/01/23 09:13:52;;;;;;;;;3.00;3.00;;;;;;;;5071789;27;45872;-73
2022/01/23 09:16:18;;;;;;;;;4.50;3.00;;;;;;;;5074615;27;45308;-72
2022/01/23 09:18:43;;;;;;;;;2.00;2.00;;;;;;;;5073952;27;45948;-72
2022/01/23 09:21:08;;;;;;;;;3.25;3.25;;;;;;;;5073879;28;47245;-73
2022/01/23 09:23:34;;;;;;;;;4.25;3.75;;;;;;;;5076273;27;46305;-72
2022/01/23 09:26:05;;;;;;;;;3.75;3.75;;;;;;;;5083349;27;45294;-73
2022/01/23 09:28:32;;;;;;;;;2.00;2.00;;;;;;;;5078066;27;45802;-72
2022/01/23 09:30:59;;;;;;;;;2.25;2.25;;;;;;;;5076752;27;45528;-73
2022/01/23 09:33:24;;;;;;;;;3.00;3.00;;;;;;;;5078928;27;46388;-72
2022/01/23 09:35:49;;;;;;;;;4.00;3.00;;;;;;;;5076295;28;45436;-72
2022/01/23 09:38:14;;;;;;;;;2.75;2.00;;;;;;;;5076612;28;45388;-73
2022/01/23 09:40:44;;;;;;;;;3.75;3.75;;;;;;;;5076634;27;45473;-72
2022/01/23 09:43:15;;;;;;;;;3.25;3.25;;;;;;;;5075440;28;46170;-73
2022/01/23 09:45:41;;;;;;;;;3.00;3.00;;;;;;;;5076592;27;45461;-73
2022/01/23 09:48:07;;;;;;;;;3.25;3.25;;;;;;;;5057915;28;45687;-73
2022/01/23 09:50:33;;;;;;;;;5.25;4.25;;;;;;;;5074296;28;45309;-72
2022/01/23 09:52:58;;;;;;;;;3.75;3.75;;;;;;;;5075264;27;46388;-72
2022/01/23 09:55:25;;;;;;;;;3.00;3.00;;;;;;;;5077894;28;45503;-72
2022/01/23 09:57:51;;;;;;;;;3.00;2.75;;;;;;;;5079444;27;45244;-73
2022/01/23 10:00:17;;;;;;;;;4.00;4.00;;;;;;;;5078348;27;45498;-73
2022/01/23 10:02:43;;;;;;;;;4.00;3.75;;;;;;;;5077567;28;45443;-73
2022/01/23 10:05:08;;;;;;;;;4.00;4.00;;;;;;;;5079145;27;45465;-73
2022/01/23 10:07:38;;;;;;;;;3.00;3.00;;;;;;;;5077758;27;45473;-73
2022/01/23 10:10:16;;;;;;;;;4.00;4.00;;;;;;;;5076140;27;45284;-72
2022/01/23 10:12:44;;;;;;;;;2.75;2.75;;;;;;;;5076939;28;46244;-72
2022/01/23 10:15:10;;;;;;;;;1.75;1.75;;;;;;;;5076712;27;45416;-73
2022/01/23 10:17:36;;;;;;;;;4.50;4.50;;;;;;;;5073495;27;45358;-72
2022/01/23 10:20:03;;;;;;;;;5.00;3.00;;;;;;;;5077289;27;45488;-73
2022/01/23 10:22:29;;;;;;;;;4.00;4.00;;;;;;;;5075725;27;45505;-73
2022/01/23 10:25:03;;;;;;;;;3.25;3.00;;;;;;;;5090337;27;45291;-72
2022/01/23 10:27:48;;;;;;;;;1.75;1.75;;;;;;;;5074018;27;45291;-73
2022/01/23 10:30:22;;;;;;;;;3.25;3.25;;;;;;;;5076669;27;45293;-73
2022/01/23 10:32:57;;;;;;;;;5.75;4.00;;;;;;;;5075660;28;46374;-73
2022/01/23 10:35:23;;;;;;;;;3.75;3.75;;;;;;;;5075414;27;45449;-73
2022/01/23 10:37:49;;;;;;;;;3.00;3.00;;;;;;;;5075653;27;45489;-73
2022/01/23 10:40:21;;;;;;;;;4.50;3.00;;;;;;;;5074996;27;45223;-73
2022/01/23 10:42:54;;;;;;;;;3.25;3.25;;;;;;;;5074515;27;46081;-73
2022/01/23 10:48:26;;;;;;;;;3.00;3.00;;;;;;;;5075255;27;45526;-73
2022/01/23 10:51:11;;;;;;;;;4.00;4.00;;;;;;;;5054112;28;45633;-74
2022/01/23 10:53:55;;;;;;;;;3.00;3.00;;;;;;;;5074954;27;46527;-74
2022/01/23 10:56:20;;;;;;;;;5.00;3.00;;;;;;;;5071942;28;45331;-72
2022/01/23 10:58:55;;;;;;;;;3.00;3.00;;;;;;;;5074532;27;45585;-72
2022/01/23 11:01:20;;;;;;;;;4.00;3.00;;;;;;;;5075552;28;45415;-72
2022/01/23 11:04:02;;;;;;;;;4.25;4.00;;;;;;;;5089119;27;46036;-73
2022/01/23 11:06:27;;;;;;;;;4.00;4.00;;;;;;;;5072677;27;45339;-72
2022/01/23 11:09:05;;;;;;;;;3.25;3.25;;;;;;;;5074338;28;45682;-72
2022/01/23 11:11:38;;;;;;;;;7.25;4.50;;;;;;;;5074729;27;45421;-72
2022/01/23 11:19:43;;;;;;;;;3.00;2.75;;;;;;;;5075189;27;50260;-72
2022/01/23 11:22:15;;;;;;;;;3.50;3.00;;;;;;;;5072944;27;45549;-72
2022/01/23 11:24:44;;;;;;;;;4.25;3.25;;;;;;;;5076462;27;46734;-73
2022/01/23 11:27:10;;;;;;;;;3.25;3.25;;;;;;;;5060804;28;45398;-72
2022/01/23 11:29:35;;;;;;;;;4.00;3.00;;;;;;;;5073884;27;45391;-74
2022/01/23 11:32:00;;;;;;;;;4.00;4.00;;;;;;;;5072667;28;45475;-72
2022/01/23 11:34:27;;;;;;;;;6.25;4.25;;;;;;;;5074848;27;46431;-71
2022/01/23 11:36:52;;;;;;;;;3.75;3.75;;;;;;;;5072773;28;45394;-71
2022/01/23 11:39:36;;;;;;;;;4.75;4.75;;;;;;;;5073551;27;45383;-72
2022/01/23 11:56:24;;;;;;;;;5.25;4.25;;;;;;;;5072486;28;45397;-72
2022/01/23 11:58:52;;;;;;;;;4.00;4.00;;;;;;;;5073995;27;45628;-72
2022/01/23 12:01:18;;;;;;;;;5.00;5.00;;;;;;;;5081452;27;45327;-72
2022/01/23 12:04:04;;;;;;;;;5.00;3.25;;;;;;;;5081418;27;45368;-71
2022/01/23 12:06:29;;;;;;;;;9.75;6.00;;;;;;;;5071578;27;47449;-71
2022/01/23 12:09:02;;;;;;;;;7.00;7.00;;;;;;;;5063709;28;45332;-68
2022/01/23 12:11:38;;;;;;;;;5.25;5.25;;;;;;;;5071614;27;45472;-70
2022/01/23 12:16:51;;;;;;;;;7.50;5.50;;;;;;;;5073320;28;46087;-71
2022/01/23 12:19:20;;;;;;;;;6.75;6.00;;;;;;;;5073964;27;45628;-71
2022/01/23 12:21:46;;;;;;;;;6.75;6.00;;;;;;;;5073105;28;45541;-70
2022/01/23 12:24:14;;;;;;;;;5.00;5.00;;;;;;;;5075796;27;45390;-71
2022/01/23 12:26:39;;;;;;;;;7.25;6.00;;;;;;;;5073692;27;45490;-71
2022/01/23 12:29:12;;;;;;;;;6.00;6.00;;;;;;;;5073878;28;45446;-71
2022/01/23 12:31:37;;;;;;;;;16.50;11.00;;;;;;;;5072113;28;45399;-75
2022/01/23 12:34:05;;;;;;;;;20.50;16.50;;;;;;;;5072203;28;45513;-70
2022/01/23 12:36:31;;;;;;;;;13.00;12.50;;;;;;;;5074533;28;46246;-70
2022/01/23 12:38:57;;;;;;;;;19.25;13.25;;;;;;;;5073695;28;45390;-71
2022/01/23 12:41:27;;;;;;;;;20.00;14.00;;;;;;;;5072111;28;45399;-71
2022/01/23 12:43:57;;;;;;;;;21.00;15.00;;;;;;;;5056483;28;45449;-72
2022/01/23 12:46:26;;;;;;;;;30.25;20.25;;;;;;;;5071894;28;47170;-71
2022/01/23 12:48:52;;;;;;;;;26.00;18.75;;;;;;;;5074862;27;45571;-72
2022/01/23 12:51:17;;;;;;;;;26.50;22.25;;;;;;;;5057550;28;45343;-73
2022/01/23 12:53:46;;;;;;;;;32.50;29.25;;;;;;;;5074829;28;45502;-72
2022/01/23 12:56:40;;;;;;;;;47.75;39.00;;;;;;;;5074589;27;46280;-72
2022/01/23 12:59:09;;;;;;;;;51.25;41.25;;;;;;;;5064314;28;45646;-72
2022/01/23 13:01:34;;;;;;;;;49.25;39.75;;;;;;;;5077146;27;45472;-72
2022/01/23 13:04:01;;;;;;;;;52.75;41.00;;;;;;;;5077328;27;45371;-72
2022/01/23 13:06:34;;;;;;;;;51.50;40.75;;;;;;;;5078556;28;47947;-72
2022/01/23 13:09:12;;;;;;;;;47.50;38.75;;;;;;;;5077729;27;45441;-72
2022/01/23 13:14:38;;;;;;;;;46.25;38.00;;;;;;;;5075033;27;45489;-72
2022/01/23 13:17:27;;;;;;;;;47.25;36.25;;;;;;;;5075094;28;46245;-71
2022/01/23 13:30:50;;;;;;;;;45.00;36.25;;;;;;;;5070507;28;45401;-71
2022/01/23 13:33:21;;;;;;;;;44.00;35.75;;;;;;;;5078353;27;45446;-72
2022/01/23 13:35:51;;;;;;;;;44.50;33.50;;;;;;;;5075695;28;45295;-74
2022/01/23 13:38:17;;;;;;;;;43.50;34.75;;;;;;;;5075655;27;47254;-72
2022/01/23 13:40:43;;;;;;;;;41.25;31.25;;;;;;;;5077468;27;45804;-71
2022/01/23 13:59:22;;;;;;;;;23.00;20.00;;;;;;;;5076621;27;45787;-71
2022/01/23 14:04:45;;;;;;;;;22.75;20.25;;;;;;;;5062207;28;45584;-70
2022/01/23 14:07:11;;;;;;;;;27.00;22.25;;;;;;;;5076275;27;45319;-70
2022/01/23 14:09:40;;;;;;;;;27.25;22.00;;;;;;;;5076717;28;45391;-71
2022/01/23 14:12:06;;;;;;;;;21.50;18.00;;;;;;;;5077372;28;45216;-70
2022/01/23 14:14:32;;;;;;;;;21.50;18.25;;;;;;;;5068724;27;45505;-71
2022/01/23 14:17:11;;;;;;;;;20.75;17.75;;;;;;;;5073927;27;45386;-71
2022/01/23 14:19:37;;;;;;;;;21.00;18.50;;;;;;;;5079121;27;47735;-70
2022/01/23 14:22:02;;;;;;;;;21.75;19.25;;;;;;;;5056481;28;45535;-70
2022/01/23 14:24:27;;;;;;;;;23.25;18.75;;;;;;;;5078361;28;45390;-71
2022/01/23 14:27:00;;;;;;;;;18.25;15.50;;;;;;;;5076225;28;45677;-70
2022/01/23 14:29:26;;;;;;;;;21.00;17.00;;;;;;;;5075445;28;46184;-71
2022/01/23 14:32:05;;;;;;;;;21.50;17.00;;;;;;;;5075770;27;45429;-71
2022/01/23 14:34:30;;;;;;;;;16.25;14.00;;;;;;;;5075757;27;45311;-70
2022/01/23 14:36:58;;;;;;;;;17.25;14.25;;;;;;;;5075858;27;45251;-71
2022/01/23 14:39:24;;;;;;;;;19.75;17.75;;;;;;;;5073504;28;46529;-71
2022/01/23 14:41:49;;;;;;;;;19.25;17.00;;;;;;;;5086394;27;45459;-71
2022/01/23 14:44:16;;;;;;;;;16.50;16.25;;;;;;;;5081129;27;45379;-70
2022/01/23 14:46:41;;;;;;;;;16.25;15.25;;;;;;;;5074663;28;45528;-71
2022/01/23 14:49:10;;;;;;;;;14.25;14.25;;;;;;;;5074298;28;46268;-71
2022/01/23 14:51:37;;;;;;;;;14.25;12.25;;;;;;;;5075951;28;45295;-71
2022/01/23 14:54:02;;;;;;;;;14.25;12.75;;;;;;;;5079435;27;45428;-71
2022/01/23 14:56:29;;;;;;;;;17.50;15.50;;;;;;;;5080552;27;45313;-71
2022/01/23 14:58:55;;;;;;;;;18.25;15.75;;;;;;;;5077058;28;46369;-70
2022/01/23 15:01:20;;;;;;;;;18.25;15.25;;;;;;;;5088733;27;45726;-71
2022/01/23 15:03:52;;;;;;;;;16.50;13.00;;;;;;;;5092337;27;45642;-71
2022/01/23 15:06:17;;;;;;;;;16.00;15.00;;;;;;;;5077365;27;45404;-71
2022/01/23 15:08:46;;;;;;;;;16.25;15.00;;;;;;;;5077878;27;45515;-71
2022/01/23 15:11:11;;;;;;;;;19.00;16.75;;;;;;;;5082719;27;45318;-71
2022/01/23 15:13:36;;;;;;;;;14.50;13.75;;;;;;;;5076899;28;45457;-70
2022/01/23 15:16:02;;;;;;;;;17.75;17.25;;;;;;;;5075938;27;45425;-71
2022/01/23 15:18:27;;;;;;;;;17.75;15.00;;;;;;;;5076757;27;46132;-71
2022/01/23 15:20:52;;;;;;;;;14.75;13.75;;;;;;;;5078897;27;45438;-70
2022/01/23 15:23:17;;;;;;;;;18.25;13.75;;;;;;;;5072785;28;45335;-70
2022/01/23 15:25:44;;;;;;;;;17.75;13.50;;;;;;;;5073410;27;45372;-71
2022/01/23 15:28:09;;;;;;;;;13.75;12.50;;;;;;;;5074948;27;47065;-71
2022/01/23 15:30:36;;;;;;;;;14.25;13.50;;;;;;;;5092393;27;45361;-70
2022/01/23 15:33:03;;;;;;;;;21.50;14.75;;;;;;;;5076006;28;45417;-71
2022/01/23 15:35:29;;;;;;;;;14.75;12.25;;;;;;;;5073374;28;45412;-71
2022/01/23 15:37:54;;;;;;;;;11.50;10.00;;;;;;;;5076769;27;46172;-71
2022/01/23 15:40:20;;;;;;;;;14.00;13.25;;;;;;;;5074677;28;45609;-71
2022/01/23 15:42:47;;;;;;;;;14.25;13.00;;;;;;;;5075131;28;45289;-70
2022/01/23 15:45:13;;;;;;;;;16.75;12.75;;;;;;;;5075113;28;45679;-71
2022/01/23 15:47:39;;;;;;;;;14.00;13.00;;;;;;;;5073927;28;46286;-71
2022/01/23 15:50:05;;;;;;;;;15.75;13.00;;;;;;;;5074540;27;45471;-71
2022/01/23 15:52:30;;;;;;;;;11.75;11.00;;;;;;;;5084263;27;45583;-70
2022/01/23 15:54:56;;;;;;;;;14.00;13.00;;;;;;;;5092734;27;45453;-70
2022/01/23 15:57:21;;;;;;;;;13.75;12.75;;;;;;;;5061082;28;47506;-70
2022/01/23 15:59:46;;;;;;;;;13.75;12.50;;;;;;;;5074162;28;45280;-71
2022/01/23 16:02:12;;;;;;;;;15.00;14.00;;;;;;;;5073450;28;45469;-70
2022/01/23 16:04:38;;;;;;;;;16.75;12.50;;;;;;;;5073319;28;45351;-71
2022/01/23 16:07:05;;;;;;;;;14.00;10.00;;;;;;;;5071863;27;47276;-71
2022/01/23 16:09:30;;;;;;;;;14.75;14.00;;;;;;;;5075642;28;45442;-70
2022/01/23 16:11:55;;;;;;;;;10.75;9.75;;;;;;;;5073329;28;45798;-71
2022/01/23 16:14:20;;;;;;;;;11.00;11.00;;;;;;;;5074891;28;45379;-71
2022/01/23 16:16:47;;;;;;;;;15.75;13.50;;;;;;;;5073338;27;45993;-70
2022/01/23 16:19:12;;;;;;;;;11.50;10.50;;;;;;;;5074339;28;45363;-70
2022/01/23 16:21:37;;;;;;;;;10.25;10.25;;;;;;;;5086663;27;45307;-69
2022/01/23 16:24:03;;;;;;;;;9.25;9.25;;;;;;;;5075329;28;45464;-71
2022/01/23 16:26:28;;;;;;;;;11.50;10.50;;;;;;;;5073648;27;46930;-70
2022/01/23 16:28:53;;;;;;;;;9.00;9.00;;;;;;;;5073966;27;45357;-71
2022/01/23 16:31:19;;;;;;;;;11.75;11.75;;;;;;;;5083314;27;45457;-71
2022/01/23 16:33:44;;;;;;;;;11.00;10.25;;;;;;;;5081306;27;45449;-71
2022/01/23 16:36:09;;;;;;;;;12.00;10.75;;;;;;;;5076018;28;45408;-71
2022/01/23 16:38:35;;;;;;;;;10.00;8.50;;;;;;;;5075485;28;45317;-71
2022/01/23 16:41:00;;;;;;;;;11.50;11.50;;;;;;;;5075210;28;45287;-71
2022/01/23 16:43:27;;;;;;;;;10.00;10.00;;;;;;;;5075740;28;45459;-70
2022/01/23 16:45:53;;;;;;;;;13.00;11.25;;;;;;;;5075096;28;45547;-71
2022/01/23 16:48:19;;;;;;;;;12.50;10.00;;;;;;;;5075577;27;45362;-70
2022/01/23 16:50:44;;;;;;;;;10.25;10.00;;;;;;;;5071295;28;45404;-71
2022/01/23 16:53:09;;;;;;;;;11.25;8.75;;;;;;;;5072156;28;45493;-71
2022/01/23 16:55:35;;;;;;;;;12.00;9.50;;;;;;;;5072342;28;45731;-71
2022/01/23 16:58:01;;;;;;;;;10.00;8.75;;;;;;;;5074006;28;45620;-71
2022/01/23 17:00:27;;;;;;;;;9.00;9.00;;;;;;;;5078154;27;45386;-71
2022/01/23 17:02:52;;;;;;;;;12.25;11.00;;;;;;;;5071264;27;45671;-71
2022/01/23 17:05:17;;;;;;;;;12.00;10.75;;;;;;;;5079446;27;46153;-71
2022/01/23 17:07:43;;;;;;;;;9.25;9.25;;;;;;;;5082294;27;45332;-70
2022/01/23 17:10:08;;;;;;;;;14.25;12.50;;;;;;;;5073595;28;45450;-70
2022/01/23 17:12:34;;;;;;;;;9.00;7.25;;;;;;;;5089664;27;45557;-70
2022/01/23 17:14:59;;;;;;;;;9.25;9.25;;;;;;;;5071713;28;45322;-71
2022/01/23 17:17:25;;;;;;;;;11.75;10.50;;;;;;;;5071981;28;45331;-71
2022/01/23 17:19:50;;;;;;;;;9.75;9.75;;;;;;;;5072009;27;45378;-71
2022/01/23 17:22:15;;;;;;;;;10.75;10.75;;;;;;;;5072163;27;45266;-70
2022/01/23 17:24:40;;;;;;;;;9.50;8.25;;;;;;;;5073675;28;45653;-71
2022/01/23 17:27:06;;;;;;;;;10.75;10.00;;;;;;;;5074962;28;45221;-71
2022/01/23 17:29:31;;;;;;;;;10.00;9.50;;;;;;;;5073179;28;45251;-71
2022/01/23 17:31:56;;;;;;;;;12.00;10.75;;;;;;;;5072120;28;45493;-71
2022/01/23 17:34:21;;;;;;;;;8.75;8.75;;;;;;;;5072899;28;46248;-71
2022/01/23 17:36:47;;;;;;;;;10.75;9.75;;;;;;;;5073040;28;45340;-71
2022/01/23 17:39:12;;;;;;;;;11.00;9.50;;;;;;;;5075501;28;45402;-71
2022/01/23 17:41:37;;;;;;;;;10.75;10.00;;;;;;;;5056189;28;45422;-71
2022/01/23 17:44:03;;;;;;;;;11.00;9.25;;;;;;;;5072280;28;45520;-73
2022/01/23 17:46:34;;;;;;;;;8.75;8.75;;;;;;;;5081567;27;45534;-72
2022/01/23 17:49:09;;;;;;;;;7.00;6.75;;;;;;;;5059966;28;45486;-73
2022/01/23 17:51:34;;;;;;;;;11.00;8.00;;;;;;;;5077752;28;45458;-72
2022/01/23 17:53:59;;;;;;;;;9.75;9.00;;;;;;;;5076836;27;45455;-74
2022/01/23 17:56:25;;;;;;;;;8.75;8.00;;;;;;;;5071735;28;45408;-74
2022/01/23 17:58:51;;;;;;;;;9.00;8.00;;;;;;;;5075249;27;45321;-73
2022/01/23 18:01:16;;;;;;;;;9.25;7.75;;;;;;;;5074513;28;45341;-74
2022/01/23 18:03:42;;;;;;;;;8.75;8.50;;;;;;;;5076295;28;46994;-73